Time;durP1;ratioP1;P1;durP2;ratioP2;P2;SDS_P1;SDS_P2;PMS_P1;PMS_P2;Temp;Humidity;BMP_temperature;BMP_pressure;BME280_temperature;BME280_humidity;BME280_pressure;Samples;Min_cycle;Max_cycle;Signal;HPM_P1;HPM_P2
2021/10/06 00:02:56;;;;;;;;;88.50;87.00;;;;;;;;2;279082678;279082678;-81
2021/10/06 00:11:40;;;;;;;;;81.00;78.00;;;;;;;;2;234068565;234068565;-80
2021/10/06 00:20:41;;;;;;;;;88.50;86.50;;;;;;;;2;279080866;279080866;-80
2021/10/06 00:29:23;;;;;;;;;72.50;68.00;;;;;;;;2;234068821;234068821;-79
2021/10/06 00:38:24;;;;;;;;;79.50;77.00;;;;;;;;2;279081568;279081568;-79
2021/10/06 00:47:10;;;;;;;;;85.00;85.00;;;;;;;;2;234068740;234068740;-79
2021/10/06 00:56:11;;;;;;;;;93.00;93.00;;;;;;;;2;279079419;279079419;-80
2021/10/06 01:04:54;;;;;;;;;82.50;82.00;;;;;;;;2;234068847;234068847;-79
2021/10/06 01:13:55;;;;;;;;;80.50;78.00;;;;;;;;2;279082368;279082368;-79
2021/10/06 01:22:37;;;;;;;;;85.50;84.00;;;;;;;;2;234070382;234070382;-80
2021/10/06 01:31:38;;;;;;;;;84.50;84.00;;;;;;;;2;279080810;279080810;-80
2021/10/06 01:40:22;;;;;;;;;81.50;78.00;;;;;;;;2;234067419;234067419;-80
2021/10/06 01:49:23;;;;;;;;;76.00;72.00;;;;;;;;2;279082385;279082385;-79
2021/10/06 01:58:08;;;;;;;;;86.00;85.00;;;;;;;;2;234070053;234070053;-80
2021/10/06 02:07:09;;;;;;;;;81.50;80.00;;;;;;;;2;279083738;279083738;-78
2021/10/06 02:15:52;;;;;;;;;88.00;86.00;;;;;;;;2;234070970;234070970;-78
2021/10/06 02:24:52;;;;;;;;;82.50;81.50;;;;;;;;2;279081154;279081154;-78
2021/10/06 02:33:35;;;;;;;;;79.50;76.50;;;;;;;;2;234069330;234069330;-78
2021/10/06 02:42:35;;;;;;;;;84.50;84.50;;;;;;;;2;279079629;279079629;-78
2021/10/06 02:51:18;;;;;;;;;84.50;82.00;;;;;;;;2;234069615;234069615;-79
2021/10/06 03:00:18;;;;;;;;;102.50;102.50;;;;;;;;2;279079570;279079570;-79
2021/10/06 03:09:02;;;;;;;;;79.00;76.00;;;;;;;;2;234070335;234070335;-79
2021/10/06 03:18:03;;;;;;;;;90.50;90.50;;;;;;;;2;279078790;279078790;-79
2021/10/06 03:26:45;;;;;;;;;97.50;97.50;;;;;;;;2;234070823;234070823;-79
2021/10/06 03:35:46;;;;;;;;;100.00;100.00;;;;;;;;2;279081406;279081406;-79
2021/10/06 03:44:28;;;;;;;;;92.00;92.00;;;;;;;;2;234069796;234069796;-79
2021/10/06 03:53:29;;;;;;;;;98.50;98.50;;;;;;;;2;279082051;279082051;-79
2021/10/06 04:02:11;;;;;;;;;105.00;105.00;;;;;;;;2;234071119;234071119;-78
2021/10/06 04:11:12;;;;;;;;;99.50;99.50;;;;;;;;2;279081411;279081411;-79
2021/10/06 04:19:54;;;;;;;;;86.00;86.00;;;;;;;;2;234071572;234071572;-79
2021/10/06 04:28:55;;;;;;;;;82.00;79.00;;;;;;;;2;279080322;279080322;-78
2021/10/06 04:37:37;;;;;;;;;86.00;86.00;;;;;;;;2;234066995;234066995;-79
2021/10/06 04:46:38;;;;;;;;;91.00;91.00;;;;;;;;2;279080992;279080992;-79
2021/10/06 04:55:20;;;;;;;;;93.00;93.00;;;;;;;;2;234066599;234066599;-79
2021/10/06 05:04:21;;;;;;;;;91.50;91.50;;;;;;;;2;279080769;279080769;-79
2021/10/06 05:13:04;;;;;;;;;81.50;80.00;;;;;;;;2;234069640;234069640;-80
2021/10/06 05:22:04;;;;;;;;;87.00;86.50;;;;;;;;2;279079116;279079116;-79
2021/10/06 05:30:47;;;;;;;;;106.50;106.50;;;;;;;;2;234071103;234071103;-79
2021/10/06 05:39:47;;;;;;;;;94.00;94.00;;;;;;;;2;279080818;279080818;-79
2021/10/06 05:48:30;;;;;;;;;80.00;77.50;;;;;;;;2;234068964;234068964;-79
2021/10/06 05:57:30;;;;;;;;;77.50;75.50;;;;;;;;2;279079200;279079200;-79
2021/10/06 06:06:13;;;;;;;;;79.50;77.50;;;;;;;;2;234070698;234070698;-79
2021/10/06 06:15:14;;;;;;;;;85.50;85.00;;;;;;;;2;279082075;279082075;-79
2021/10/06 06:23:56;;;;;;;;;86.50;86.00;;;;;;;;2;234067724;234067724;-78
2021/10/06 06:32:57;;;;;;;;;77.00;73.50;;;;;;;;2;279079421;279079421;-82
2021/10/06 06:41:39;;;;;;;;;91.50;91.50;;;;;;;;2;234068758;234068758;-79
2021/10/06 06:50:40;;;;;;;;;75.50;71.00;;;;;;;;2;279080069;279080069;-78
2021/10/06 06:59:22;;;;;;;;;94.00;94.00;;;;;;;;2;234068482;234068482;-78
2021/10/06 07:08:23;;;;;;;;;84.00;84.00;;;;;;;;2;279079289;279079289;-78
2021/10/06 07:17:05;;;;;;;;;83.00;81.50;;;;;;;;2;234072680;234072680;-78
2021/10/06 07:26:06;;;;;;;;;91.00;91.00;;;;;;;;2;279084945;279084945;-78
2021/10/06 07:34:48;;;;;;;;;70.50;63.50;;;;;;;;2;234072979;234072979;-78
2021/10/06 08:01:39;;;;;;;;;82.50;80.50;;;;;;;;2;279080968;279080968;-79
2021/10/06 08:10:37;;;;;;;;;77.50;73.50;;;;;;;;2;234071964;234071964;-80
2021/10/06 08:19:40;;;;;;;;;76.50;72.00;;;;;;;;2;279081061;279081061;-79
2021/10/06 08:28:22;;;;;;;;;83.00;83.00;;;;;;;;2;234068792;234068792;-79
2021/10/06 08:37:23;;;;;;;;;79.00;78.50;;;;;;;;2;279081819;279081819;-78
2021/10/06 08:46:06;;;;;;;;;77.50;75.00;;;;;;;;2;234067772;234067772;-79
2021/10/06 08:55:07;;;;;;;;;71.50;64.50;;;;;;;;2;279085074;279085074;-79
2021/10/06 09:03:55;;;;;;;;;69.50;60.50;;;;;;;;2;234068752;234068752;-79
2021/10/06 09:13:06;;;;;;;;;80.50;80.00;;;;;;;;2;279080594;279080594;-79
2021/10/06 09:21:53;;;;;;;;;97.50;97.50;;;;;;;;2;234067880;234067880;-78
2021/10/06 09:30:55;;;;;;;;;57.00;48.00;;;;;;;;2;279078426;279078426;-77
2021/10/06 09:39:48;;;;;;;;;48.50;42.50;;;;;;;;2;234069203;234069203;-78
2021/10/06 09:48:49;;;;;;;;;72.00;65.50;;;;;;;;2;279080197;279080197;-78
2021/10/06 09:57:33;;;;;;;;;53.50;45.00;;;;;;;;2;234070669;234070669;-78
2021/10/06 10:06:34;;;;;;;;;62.00;51.50;;;;;;;;2;279081517;279081517;-78
2021/10/06 10:15:19;;;;;;;;;54.50;46.00;;;;;;;;2;234069212;234069212;-80
2021/10/06 10:24:23;;;;;;;;;67.00;61.50;;;;;;;;2;279082212;279082212;-78
2021/10/06 10:36:35;;;;;;;;;66.00;59.00;;;;;;;;2;234070393;234070393;-79
2021/10/06 10:45:36;;;;;;;;;48.00;41.50;;;;;;;;2;279080234;279080234;-77
2021/10/06 10:54:28;;;;;;;;;56.00;47.00;;;;;;;;2;234070388;234070388;-78
2021/10/06 11:03:29;;;;;;;;;65.50;56.00;;;;;;;;2;279081500;279081500;-78
2021/10/06 11:12:12;;;;;;;;;63.50;53.50;;;;;;;;2;234067677;234067677;-79
2021/10/06 11:21:30;;;;;;;;;57.00;50.00;;;;;;;;2;279079934;279079934;-79
2021/10/06 11:30:14;;;;;;;;;58.00;50.50;;;;;;;;2;234067403;234067403;-78
2021/10/06 11:39:14;;;;;;;;;50.50;43.00;;;;;;;;2;279083459;279083459;-79
2021/10/06 11:48:00;;;;;;;;;59.00;49.00;;;;;;;;2;234070955;234070955;-79
2021/10/06 11:57:03;;;;;;;;;38.50;35.00;;;;;;;;2;279081681;279081681;-78
2021/10/06 12:05:45;;;;;;;;;61.00;53.50;;;;;;;;2;234069081;234069081;-78
2021/10/06 12:14:46;;;;;;;;;56.50;47.50;;;;;;;;2;279082201;279082201;-78
2021/10/06 12:23:29;;;;;;;;;37.50;34.50;;;;;;;;2;234068764;234068764;-79
2021/10/06 12:32:30;;;;;;;;;40.00;36.00;;;;;;;;2;279081775;279081775;-79
2021/10/06 12:41:15;;;;;;;;;64.50;54.00;;;;;;;;2;234069970;234069970;-78
2021/10/06 12:50:16;;;;;;;;;52.00;44.00;;;;;;;;2;279081096;279081096;-78
2021/10/06 12:59:02;;;;;;;;;46.50;39.50;;;;;;;;2;234068171;234068171;-78
2021/10/06 13:08:13;;;;;;;;;44.50;39.50;;;;;;;;2;279081585;279081585;-78
2021/10/06 13:16:56;;;;;;;;;60.00;51.50;;;;;;;;2;234068673;234068673;-78
2021/10/06 13:25:57;;;;;;;;;53.00;47.00;;;;;;;;2;279082988;279082988;-78
2021/10/06 13:34:39;;;;;;;;;54.00;46.50;;;;;;;;2;234069361;234069361;-78
2021/10/06 13:43:40;;;;;;;;;48.50;41.50;;;;;;;;2;279081261;279081261;-78
2021/10/06 13:52:22;;;;;;;;;45.00;39.50;;;;;;;;2;234068587;234068587;-78
2021/10/06 14:01:24;;;;;;;;;48.00;42.50;;;;;;;;2;279082372;279082372;-78
2021/10/06 14:10:06;;;;;;;;;58.00;49.00;;;;;;;;2;234069503;234069503;-78
2021/10/06 14:19:07;;;;;;;;;49.00;42.50;;;;;;;;2;279079274;279079274;-78
2021/10/06 14:27:50;;;;;;;;;58.50;50.00;;;;;;;;2;234069806;234069806;-78
2021/10/06 14:36:50;;;;;;;;;47.50;41.50;;;;;;;;2;279080125;279080125;-79
2021/10/06 14:45:33;;;;;;;;;62.50;54.00;;;;;;;;2;234068633;234068633;-78
2021/10/06 14:54:33;;;;;;;;;60.50;50.00;;;;;;;;2;279083352;279083352;-78
2021/10/06 15:03:16;;;;;;;;;52.00;44.50;;;;;;;;2;234072718;234072718;-77
2021/10/06 15:12:17;;;;;;;;;50.50;43.00;;;;;;;;2;279079379;279079379;-77
2021/10/06 15:20:59;;;;;;;;;56.00;47.00;;;;;;;;2;234069163;234069163;-77
2021/10/06 15:30:00;;;;;;;;;53.50;46.00;;;;;;;;2;279080794;279080794;-77
2021/10/06 15:38:43;;;;;;;;;39.50;35.00;;;;;;;;2;234067692;234067692;-77
2021/10/06 15:47:44;;;;;;;;;53.00;45.00;;;;;;;;2;279080802;279080802;-78
2021/10/06 16:03:04;;;;;;;;;;;;;;;;;;175559;28;261077594;-76
2021/10/06 16:12:31;;;;;;;;;42.00;37.50;;;;;;;;2;288086069;288086069;-75
2021/10/06 16:20:47;;;;;;;;;73.50;68.00;;;;;;;;2;261078040;261078040;-75
2021/10/06 16:30:14;;;;;;;;;55.00;46.00;;;;;;;;2;288084773;288084773;-77
2021/10/06 16:38:30;;;;;;;;;55.50;46.50;;;;;;;;2;261077376;261077376;-77
2021/10/06 16:47:59;;;;;;;;;50.00;43.00;;;;;;;;2;288084393;288084393;-75
2021/10/06 16:56:15;;;;;;;;;53.50;45.50;;;;;;;;2;261080250;261080250;-79
2021/10/06 17:05:39;;;;;;;;;47.00;41.00;;;;;;;;2;286241031;286241031;-77
2021/10/06 17:13:55;;;;;;;;;64.50;55.50;;;;;;;;2;261077717;261077717;-78
2021/10/06 17:23:22;;;;;;;;;66.00;55.50;;;;;;;;2;288082631;288082631;-77
2021/10/06 17:28:04;;;;;;;;;59.00;49.50;;;;;;;;2;258880393;258880393;-79
2021/10/06 17:32:31;;;;;;;;;70.00;61.50;;;;;;;;3;46108148;220189701;-78
2021/10/06 17:34:57;;;;;;;;;76.50;72.50;;;;;;;;1619309;28;72199971;-78
2021/10/06 17:42:31;;;;;;;;;;;;;;;;;;157887;28;287271145;-77
2021/10/06 17:57:38;;;;;;;;;62.00;56.00;;;;;;;;2;261078731;261078731;-78
2021/10/06 18:07:06;;;;;;;;;60.50;51.50;;;;;;;;2;288071428;288071428;-78
2021/10/06 18:15:22;;;;;;;;;41.00;36.50;;;;;;;;2;261078703;261078703;-78
2021/10/06 18:24:50;;;;;;;;;54.00;47.00;;;;;;;;2;288088060;288088060;-78
2021/10/06 18:33:05;;;;;;;;;78.00;73.50;;;;;;;;2;261077890;261077890;-78
2021/10/06 18:42:33;;;;;;;;;68.00;60.50;;;;;;;;2;288084428;288084428;-79
2021/10/06 18:50:48;;;;;;;;;65.50;58.50;;;;;;;;2;261079305;261079305;-79
2021/10/06 19:00:22;;;;;;;;;72.00;67.00;;;;;;;;2;288083621;288083621;-78
2021/10/06 19:08:38;;;;;;;;;58.50;49.50;;;;;;;;2;261016008;261016008;-79
2021/10/06 19:18:06;;;;;;;;;72.50;66.00;;;;;;;;2;288083409;288083409;-79
2021/10/06 19:26:21;;;;;;;;;;;;;;;;;;2;261076084;261076084;-79
2021/10/06 19:35:49;;;;;;;;;69.00;61.50;;;;;;;;2;288085764;288085764;-79
2021/10/06 19:44:04;;;;;;;;;73.00;67.50;;;;;;;;2;261077460;261077460;-79
2021/10/06 19:53:32;;;;;;;;;71.50;65.50;;;;;;;;2;288086943;288086943;-80
2021/10/06 20:01:48;;;;;;;;;80.50;79.00;;;;;;;;2;261080186;261080186;-80
2021/10/06 20:11:15;;;;;;;;;84.00;84.00;;;;;;;;2;288084782;288084782;-80
2021/10/06 20:19:31;;;;;;;;;89.50;89.50;;;;;;;;2;261079724;261079724;-80
2021/10/06 20:29:01;;;;;;;;;66.50;58.50;;;;;;;;2;288085148;288085148;-80
